»·PEaware :: AAY2928 KABQ-KELP

AAY2928 :: KABQ-KELP

FLIGHT INFORMATION

Flight Status: Arrived
Operator:
Allegiant Air
More flights by this operator :: More flights under this callsign
Pilot: Anonymous A. (29301)
Aircraft: AIRBUS A320
(A320)
More flights by this aircraft type
Origin: KABQ Albuquerque Intl Sunport
United States
Destination: KELP El Paso Intl
United States
More flights between these airports :: More routes between these airports
Route: + SLNNK WAZKO1
File this flight plan on PilotEdge
Remarks:
Altitude:
(Current/Filed)
31,000ft
Speed:
(Current/Filed)
270kts
Departed: 01-May-20 08:21 AM
Arrived: 01-May-20 09:01 AM
Distance/Time
Traveled:
195nm/0:40
Distance/Time
To Go:
Arrived

Flight Plot

Page will automatically refresh every two minutes.

Flight plan parsing failed; only flown route is shown


Map Options




Map Legend


Flown Route
Filed Route
Departure Airport
Arrival Airport
Navaid (VOR, NDB)
Fix

Horizontal Profiles

Position Reports

Time Latitude Longitude Heading Altitude Ground
Speed
01-May-20 08:00 35.046892 -106.615382 11 5320ft 0kts
01-May-20 08:01 35.046892 -106.615382 11 5320ft 0kts
01-May-20 08:02 35.046892 -106.615382 11 5320ft 0kts
01-May-20 08:03 35.046892 -106.615382 11 5320ft 0kts
01-May-20 08:04 35.046892 -106.615382 11 5320ft 0kts
01-May-20 08:05 35.046892 -106.615382 11 5320ft 0kts
01-May-20 08:06 35.046892 -106.615382 11 5320ft 0kts
01-May-20 08:07 35.046892 -106.615382 11 5320ft 0kts
01-May-20 08:08 35.046786 -106.615410 11 5320ft 2kts
01-May-20 08:09 35.046506 -106.615481 11 5320ft 0kts
01-May-20 08:10 35.046459 -106.615493 11 5320ft 2kts
01-May-20 08:11 35.045869 -106.615644 11 5319ft 2kts
01-May-20 08:12 35.045551 -106.616052 94 5319ft 1kts
01-May-20 08:13 35.045553 -106.616089 91 5319ft 0kts
01-May-20 08:14 35.045553 -106.616089 91 5319ft 0kts
01-May-20 08:15 35.045547 -106.614758 89 5320ft 11kts
01-May-20 08:16 35.045402 -106.610487 178 5323ft 10kts
01-May-20 08:17 35.042487 -106.610307 114 5322ft 10kts
01-May-20 08:18 35.042411 -106.607780 89 5323ft 0kts
01-May-20 08:19 35.042411 -106.607569 90 5323ft 4kts
01-May-20 08:20 35.035585 -106.614509 224 5318ft 133kts
01-May-20 08:21 35.000027 -106.657705 223 7434ft 213kts
01-May-20 08:22 34.945885 -106.719838 223 9014ft 298kts
01-May-20 08:23 34.877553 -106.780231 215 10419ft 316kts
01-May-20 08:24 34.782886 -106.792637 177 12583ft 378kts
01-May-20 08:25 34.676463 -106.783840 178 15427ft 393kts
01-May-20 08:26 34.565587 -106.775131 178 17953ft 407kts
01-May-20 08:27 34.452586 -106.779587 199 20190ft 413kts
01-May-20 08:28 34.340762 -106.820032 201 22229ft 424kts
01-May-20 08:29 34.229324 -106.868824 203 23752ft 432kts
01-May-20 08:30 34.114765 -106.919160 203 25428ft 443kts
01-May-20 08:31 33.996471 -106.970989 203 26956ft 454kts
01-May-20 08:32 33.876435 -107.023425 203 28317ft 464kts
01-May-20 08:33 33.754330 -107.076749 205 29526ft 473kts
01-May-20 08:35 33.631614 -107.138965 206 30633ft 481kts
01-May-20 08:36 33.508185 -107.200573 206 31272ft 477kts
01-May-20 08:37 33.385178 -107.261371 203 31276ft 481kts
01-May-20 08:38 33.255174 -107.299024 196 30881ft 473kts
01-May-20 08:39 33.125950 -107.334264 196 29927ft 466kts
01-May-20 08:40 32.999331 -107.366494 186 28976ft 462kts
01-May-20 08:41 32.882484 -107.316835 142 28007ft 456kts
01-May-20 08:42 32.787881 -107.220681 144 26628ft 443kts
01-May-20 08:43 32.688397 -107.136775 144 24473ft 434kts
01-May-20 08:44 32.591754 -107.055737 144 22462ft 422kts
01-May-20 08:45 32.497303 -106.976773 145 20367ft 410kts
01-May-20 08:46 32.402712 -106.897905 145 18224ft 399kts
01-May-20 08:47 32.311041 -106.821668 146 16116ft 390kts
01-May-20 08:48 32.223423 -106.748978 146 14139ft 379kts
01-May-20 08:49 32.137983 -106.678254 146 12186ft 363kts
01-May-20 08:50 32.053203 -106.631091 150 10035ft 307kts
01-May-20 08:51 32.020173 -106.548724 101 9405ft 265kts
01-May-20 08:52 31.996377 -106.470173 122 9145ft 264kts
01-May-20 08:53 31.955860 -106.401903 122 9163ft 226kts
01-May-20 08:53 31.930061 -106.358234 121 9127ft 169kts
01-May-20 08:54 31.903477 -106.313136 122 7922ft 166kts
01-May-20 08:56 31.873729 -106.263646 138 6738ft 154kts
01-May-20 08:56 31.840413 -106.269666 201 6108ft 150kts
01-May-20 08:57 31.801503 -106.286391 219 5374ft 147kts
01-May-20 08:59 31.799675 -106.338442 274 4427ft 140kts
01-May-20 08:59 31.801268 -106.372678 272 3952ft 60kts
01-May-20 09:00 31.800052 -106.377567 204 3946ft 6kts
01-May-20 09:01 31.799926 -106.380105 270 3943ft 10kts
01-May-20 09:02 31.799920 -106.384334 269 3938ft 15kts
01-May-20 09:03 31.799902 -106.389768 269 3931ft 11kts
01-May-20 09:04 31.799407 -106.392673 250 3927ft 5kts
01-May-20 09:05 31.799771 -106.393017 1 3927ft 0kts

Navigation Log

Ident Type
Flight plan parsing failed, navigation log unavailable